Onweer radar Meer informatie blitzortung!


Regen radar Meer informatie rain snow radar


Andere websites:

Template documentation
and downloads

And another site

Weather-Template Info-Forum

Webcam-Havenmond

Webcam-Havenkantoor

Webcam-Werkhaven

Webcam-Westhaven



Het weer levert geen direct gevaar op.    Er zijn geen waarschuwingen afgegeven.

METAR rapporten vliegvelden

   
EBAW - Antwerp
Gewijzigd: 17-08-2018 22:20
Helder  
Helder  
   Wind: varieert 1.9 km/h
Wind: varieert 1.9 km/h
Temperatuur: 17°C
Dauwpunt: 11°C
Vochtigheid: 68%
Barometer: 1021 hPa
Zicht: meer dan 10 km
Bewolking: Helder
EBAW 172020Z VRB01KT CAVOK 17/11 Q1021 NOSIG
EBLG - Li├Ęge
Gewijzigd: 17-08-2018 22:20
Helder  
Helder  
   Wind: NNW 7.4 km/h
Wind: NNW 7.4 km/h
Temperatuur: 17°C
Dauwpunt: 12°C
Vochtigheid: 73%
Barometer: 1021 hPa
Zicht: meer dan 10 km
Bewolking: Helder
EBLG 172020Z 34004KT CAVOK 17/12 Q1021 NOSIG
EBCV - Mons/Bergen
Gewijzigd: 17-08-2018 21:55
Gedeeltelijk bewolkt  
Gedeeltelijk bewolkt  
   Wind: WNW 5.6 km/h
Wind: WNW 5.6 km/h
Temperatuur: 17°C
Dauwpunt: 12°C
Vochtigheid: 73%
Barometer: 1022 hPa
Bewolking: Gedeeltelijk bewolkt
Zicht: meer dan 10 km
Bewolking: Gedeeltelijk bewolkt 4800 ft
EBCV 171955Z AUTO 30003KT 9999 SCT048/// 17/12 Q1022 BLU
EHBK - Maastricht
Gewijzigd: 17-08-2018 22:25
Gedeeltelijk bewolkt  
Gedeeltelijk bewolkt  
   Wind: NNW 7.4 km/h
Wind: NNW 7.4 km/h
Temperatuur: 17°C
Dauwpunt: 12°C
Vochtigheid: 73%
Barometer: 1021 hPa
Bewolking: Gedeeltelijk bewolkt
Zicht: meer dan 10 km
Bewolking: Gedeeltelijk bewolkt
EHBK 172025Z AUTO 33004KT 9999 NSC 17/12 Q1021 NOSIG
ELLX - Luxemburg
Gewijzigd: 17-08-2018 22:20
Helder  
Helder  
   Wind: NNW 11.1 km/h
Wind: NNW 11.1 km/h
Temperatuur: 17°C
Dauwpunt: 12°C
Vochtigheid: 73%
Barometer: 1021 hPa
Zicht: meer dan 10 km
Bewolking: Helder
ELLX 172020Z 34006KT CAVOK 17/12 Q1021 NOSIG
EBOS - Oostende
Gewijzigd: 17-08-2018 22:20
Helder  
Helder  
   Wind: ZW 11.1 km/h
Wind: ZW 11.1 km/h
Temperatuur: 15°C
Dauwpunt: 10°C
Vochtigheid: 72%
Barometer: 1021 hPa
Zicht: meer dan 10 km
Bewolking: Helder
EBOS 172020Z 23006KT CAVOK 15/10 Q1021 NOSIG

Script ontwikkeld door  Saratoga-weather.org Aangepast voor de template door  Weerstation Leuven

U vindt ons ook hier:

Het Weer Aktueel

European Weather Network

WeatherCloud

Weather Underground

Benelux Weer Netwerk

AWEKAS

Apparatuur in gebruik:

Weerstation
Davis VP2

Weerprogramma
Meteohub

Weercomputer
My Computer

Webleverancier
My provider

Davis VP2

Meteohub

My Computer

My provider